createdAt,value
2019-04-28T00:01:36.208Z,7.00
2019-04-28T00:04:06.591Z,4.73
2019-04-28T00:06:37.209Z,5.30
2019-04-28T00:09:11.476Z,4.50
2019-04-28T00:11:41.850Z,4.70
2019-04-28T00:14:12.321Z,4.23
2019-04-28T00:16:42.690Z,5.93
2019-04-28T00:19:13.125Z,4.97
2019-04-28T00:22:05.157Z,2.80
2019-04-28T00:24:48.355Z,3.60
2019-04-28T00:27:21.506Z,4.53
2019-04-28T00:29:52.000Z,6.50
2019-04-28T00:32:22.391Z,4.20
2019-04-28T00:34:56.043Z,4.30
2019-04-28T00:37:31.903Z,3.90
2019-04-28T00:40:02.880Z,4.87
2019-04-28T00:42:33.547Z,6.93
2019-04-28T00:45:04.454Z,8.43
2019-04-28T00:47:34.874Z,6.37
2019-04-28T00:50:08.318Z,6.20
2019-04-28T00:52:39.031Z,5.77
2019-04-28T00:55:11.029Z,7.57
2019-04-28T00:57:41.937Z,5.87
2019-04-28T01:00:15.598Z,5.40
2019-04-28T01:02:46.436Z,5.70
2019-04-28T01:05:17.353Z,6.83
2019-04-28T01:07:47.779Z,5.10
2019-04-28T01:10:21.048Z,5.30
2019-04-28T01:12:51.488Z,5.30
2019-04-28T01:15:46.555Z,8.47
2019-04-28T01:18:40.468Z,4.47
2019-04-28T01:21:11.023Z,4.57
2019-04-28T01:23:41.783Z,4.67
2019-04-28T01:26:12.190Z,5.13
2019-04-28T01:28:43.048Z,7.87
2019-04-28T01:31:25.576Z,5.50
2019-04-28T01:34:15.347Z,4.33
2019-04-28T01:36:45.769Z,4.93
2019-04-28T01:39:17.109Z,9.27
2019-04-28T01:41:47.447Z,4.63
2019-04-28T01:44:19.993Z,9.17
2019-04-28T01:46:50.396Z,6.60
2019-04-28T01:49:20.869Z,4.50
2019-04-28T01:52:01.427Z,4.57
2019-04-28T01:54:32.171Z,6.03
2019-04-28T01:57:02.832Z,6.03
2019-04-28T01:59:33.140Z,5.70
2019-04-28T02:02:04.575Z,6.57
2019-04-28T02:04:35.231Z,5.87
2019-04-28T02:07:05.661Z,5.10
2019-04-28T02:09:35.962Z,6.47
2019-04-28T02:12:06.394Z,5.47
2019-04-28T02:14:37.094Z,4.93
2019-04-28T02:17:10.431Z,4.80
2019-04-28T02:19:41.234Z,6.20
2019-04-28T02:22:29.896Z,6.07
2019-04-28T02:25:01.748Z,6.70
2019-04-28T02:27:32.068Z,7.07
2019-04-28T02:30:02.572Z,5.90
2019-04-28T02:32:35.309Z,6.60
2019-04-28T02:35:06.878Z,6.00
2019-04-28T02:37:37.160Z,7.17
2019-04-28T02:40:10.666Z,5.10
2019-04-28T02:42:41.094Z,5.53
2019-04-28T02:45:14.417Z,8.97
2019-04-28T02:47:45.140Z,5.50
2019-04-28T02:50:46.819Z,6.30
2019-04-28T02:53:25.056Z,7.27
2019-04-28T02:55:55.739Z,7.07
2019-04-28T02:58:26.122Z,5.53
2019-04-28T03:01:06.174Z,5.67
2019-04-28T03:03:30.896Z,6.77
2019-04-28T03:06:01.837Z,6.27
2019-04-28T03:08:32.834Z,7.53
2019-04-28T03:11:03.481Z,6.20
2019-04-28T03:13:33.752Z,10.27
2019-04-28T03:16:04.466Z,8.20
2019-04-28T03:18:35.418Z,6.47
2019-04-28T03:21:05.807Z,8.83
2019-04-28T03:23:36.257Z,6.73
2019-04-28T03:26:15.055Z,12.43
2019-04-28T03:29:07.332Z,6.77
2019-04-28T03:32:13.926Z,7.53
2019-04-28T03:34:17.599Z,6.87
2019-04-28T03:36:47.928Z,7.17
2019-04-28T03:39:20.474Z,7.33
2019-04-28T03:41:50.543Z,8.43
2019-04-28T03:44:21.003Z,9.50
2019-04-28T03:46:54.122Z,7.37
2019-04-28T03:49:35.167Z,9.87
2019-04-28T03:52:07.246Z,7.83
2019-04-28T03:54:40.689Z,8.33
2019-04-28T03:57:11.344Z,10.57
2019-04-28T03:59:43.754Z,7.47
2019-04-28T04:02:14.328Z,7.93
2019-04-28T04:04:44.953Z,8.47
2019-04-28T04:07:15.901Z,6.73
2019-04-28T04:10:02.127Z,7.83
2019-04-28T04:12:51.858Z,8.27
2019-04-28T04:15:54.567Z,8.67
2019-04-28T04:18:41.000Z,7.40
2019-04-28T04:21:12.051Z,6.97
2019-04-28T04:23:42.816Z,8.53
2019-04-28T04:26:13.125Z,13.13
2019-04-28T04:28:44.151Z,9.40
2019-04-28T04:31:14.805Z,10.80
2019-04-28T04:33:45.930Z,9.77
2019-04-28T04:36:16.234Z,9.73
2019-04-28T04:38:46.601Z,9.87
2019-04-28T04:41:17.314Z,9.60
2019-04-28T04:43:51.045Z,12.10
2019-04-28T04:46:25.171Z,10.77
2019-04-28T04:48:55.527Z,9.63
2019-04-28T04:51:26.128Z,14.73
2019-04-28T04:53:56.482Z,10.00
2019-04-28T04:56:26.807Z,11.13
2019-04-28T04:58:57.245Z,9.77
2019-04-28T05:01:46.734Z,8.93
2019-04-28T05:04:23.287Z,11.17
2019-04-28T05:06:54.201Z,10.03
2019-04-28T05:09:24.550Z,18.00
2019-04-28T05:11:54.873Z,10.87
2019-04-28T05:14:25.953Z,13.13
2019-04-28T05:16:56.942Z,9.67
2019-04-28T05:19:27.188Z,9.60
2019-04-28T05:22:00.001Z,12.07
2019-04-28T05:24:54.609Z,9.07
2019-04-28T05:27:25.736Z,13.43
2019-04-28T05:29:56.909Z,11.87
2019-04-28T05:32:41.486Z,11.30
2019-04-28T05:35:02.043Z,10.03
2019-04-28T05:37:32.658Z,9.87
2019-04-28T05:40:03.471Z,8.90
2019-04-28T05:42:34.209Z,12.73
2019-04-28T05:45:04.782Z,14.20
2019-04-28T05:47:35.100Z,10.83
2019-04-28T05:50:17.143Z,8.53
2019-04-28T05:53:02.801Z,8.80
2019-04-28T05:55:55.410Z,11.57
2019-04-28T05:58:30.698Z,13.00
2019-04-28T06:01:20.923Z,9.17
2019-04-28T06:03:53.681Z,10.23
2019-04-28T06:06:30.302Z,8.57
2019-04-28T06:09:20.391Z,10.97
2019-04-28T06:11:54.242Z,8.63
2019-04-28T06:14:23.398Z,7.87
2019-04-28T06:16:54.390Z,7.97
2019-04-28T06:19:24.957Z,7.93
2019-04-28T06:21:55.596Z,12.50
2019-04-28T06:24:25.935Z,9.13
2019-04-28T06:26:56.651Z,8.20
2019-04-28T06:29:27.931Z,6.53
2019-04-28T06:31:58.303Z,7.87
2019-04-28T06:34:28.594Z,6.13
2019-04-28T06:36:58.921Z,7.37
2019-04-28T06:39:29.590Z,7.53
2019-04-28T06:41:59.960Z,7.03
2019-04-28T06:44:30.274Z,8.37
2019-04-28T06:47:00.987Z,5.93
2019-04-28T06:49:31.292Z,7.23
2019-04-28T06:52:01.601Z,7.27
2019-04-28T06:54:31.913Z,5.87
2019-04-28T06:57:02.835Z,7.33
2019-04-28T06:59:33.213Z,7.90
2019-04-28T07:02:04.308Z,5.77
2019-04-28T07:04:34.662Z,5.13
2019-04-28T07:07:05.298Z,7.57
2019-04-28T07:09:36.290Z,6.40
2019-04-28T07:12:06.889Z,5.23
2019-04-28T07:14:37.368Z,7.73
2019-04-28T07:17:07.815Z,7.57
2019-04-28T07:19:38.560Z,6.67
2019-04-28T07:22:13.991Z,5.80
2019-04-28T07:24:44.972Z,5.17
2019-04-28T07:27:15.398Z,5.13
2019-04-28T07:29:46.100Z,4.60
2019-04-28T07:32:16.650Z,6.93
2019-04-28T07:34:49.077Z,5.87
2019-04-28T07:37:19.737Z,6.90
2019-04-28T07:39:50.704Z,9.17
2019-04-28T07:42:21.074Z,5.70
2019-04-28T07:44:51.447Z,5.17
2019-04-28T07:47:25.107Z,7.83
2019-04-28T07:49:55.452Z,5.07
2019-04-28T07:52:38.653Z,5.83
2019-04-28T07:55:09.390Z,5.90
2019-04-28T07:57:40.429Z,7.67
2019-04-28T08:00:12.879Z,8.53
2019-04-28T08:03:00.655Z,6.40
2019-04-28T08:05:42.473Z,5.73
2019-04-28T08:08:13.612Z,7.47
2019-04-28T08:10:43.934Z,8.33
2019-04-28T08:13:14.846Z,6.60
2019-04-28T08:15:49.104Z,6.10
2019-04-28T08:18:31.583Z,4.73
2019-04-28T08:21:04.461Z,8.20
2019-04-28T08:23:46.655Z,6.00
2019-04-28T08:26:08.059Z,6.43
2019-04-28T08:28:38.340Z,6.33
2019-04-28T08:31:10.408Z,7.20
2019-04-28T08:34:01.774Z,7.47
2019-04-28T08:36:23.936Z,7.07
2019-04-28T08:38:54.231Z,7.20
2019-04-28T08:41:24.907Z,6.63
2019-04-28T08:43:55.188Z,5.47
2019-04-28T08:46:25.503Z,5.13
2019-04-28T08:48:58.027Z,8.13
2019-04-28T08:51:28.571Z,6.10
2019-04-28T08:53:59.879Z,6.00
2019-04-28T08:56:30.183Z,8.17
2019-04-28T08:59:00.524Z,5.37
2019-04-28T09:01:31.120Z,7.73
2019-04-28T09:04:14.411Z,6.47
2019-04-28T09:06:34.040Z,6.67
2019-04-28T09:09:13.652Z,4.30
2019-04-28T09:11:44.227Z,7.43
2019-04-28T09:14:15.478Z,6.77
2019-04-28T09:16:46.856Z,8.50
2019-04-28T09:19:17.176Z,6.47
2019-04-28T09:21:47.800Z,5.87
2019-04-28T09:24:18.144Z,4.30
2019-04-28T09:26:48.481Z,8.17
2019-04-28T09:29:18.807Z,6.87
2019-04-28T09:31:49.223Z,5.70
2019-04-28T09:34:28.084Z,4.47
2019-04-28T09:36:51.917Z,5.20
2019-04-28T09:39:43.204Z,5.70
2019-04-28T09:42:31.476Z,6.53
2019-04-28T09:45:04.904Z,5.53
2019-04-28T09:47:35.759Z,5.60
2019-04-28T09:50:06.331Z,6.47
2019-04-28T09:52:36.584Z,7.47
2019-04-28T09:55:06.999Z,5.60
2019-04-28T09:57:37.305Z,5.23
2019-04-28T10:00:10.173Z,7.40
2019-04-28T10:02:40.475Z,7.50
2019-04-28T10:05:11.316Z,5.23
2019-04-28T10:07:41.731Z,7.00
2019-04-28T10:10:13.519Z,5.27
2019-04-28T10:12:43.935Z,6.63
2019-04-28T10:15:14.819Z,6.27
2019-04-28T10:17:45.785Z,6.60
2019-04-28T10:20:16.606Z,5.43
2019-04-28T10:22:47.318Z,7.50
2019-04-28T10:25:21.250Z,7.07
2019-04-28T10:27:51.795Z,5.23
2019-04-28T10:30:22.715Z,6.73
2019-04-28T10:32:53.651Z,7.30
2019-04-28T10:35:24.223Z,8.63
2019-04-28T10:37:54.981Z,6.03
2019-04-28T10:40:52.393Z,5.30
2019-04-28T10:43:23.665Z,5.87
2019-04-28T10:45:55.070Z,4.23
2019-04-28T10:48:26.716Z,10.00
2019-04-28T10:50:57.106Z,6.67
2019-04-28T10:53:27.881Z,5.37
2019-04-28T10:55:58.248Z,7.20
2019-04-28T10:58:28.966Z,7.37
2019-04-28T11:00:59.313Z,7.00
2019-04-28T11:03:29.742Z,6.97
2019-04-28T11:06:00.083Z,6.17
2019-04-28T11:08:47.920Z,8.10
2019-04-28T11:11:25.286Z,5.23
2019-04-28T11:13:55.911Z,7.90
2019-04-28T11:16:30.893Z,6.20
2019-04-28T11:19:01.181Z,5.53
2019-04-28T11:21:31.638Z,9.40
2019-04-28T11:24:02.352Z,7.77
2019-04-28T11:26:32.859Z,8.83
2019-04-28T11:29:03.479Z,8.57
2019-04-28T11:31:33.955Z,10.13
2019-04-28T11:34:19.822Z,6.63
2019-04-28T11:36:50.908Z,7.27
2019-04-28T11:39:27.518Z,6.87
2019-04-28T11:41:58.966Z,6.60
2019-04-28T11:44:31.407Z,5.93
2019-04-28T11:47:02.165Z,7.60
2019-04-28T11:49:32.567Z,8.37
2019-04-28T11:52:03.125Z,6.40
2019-04-28T11:54:33.537Z,6.73
2019-04-28T11:57:03.946Z,6.60
2019-04-28T11:59:35.587Z,5.60
2019-04-28T12:02:06.298Z,5.37
2019-04-28T12:04:36.822Z,9.73
2019-04-28T12:07:09.000Z,6.60
2019-04-28T12:10:04.397Z,6.23
2019-04-28T12:12:51.031Z,9.03
2019-04-28T12:15:40.649Z,5.87
2019-04-28T12:18:29.938Z,7.00
2019-04-28T12:21:02.381Z,6.47
2019-04-28T12:23:32.805Z,6.17
2019-04-28T12:26:03.451Z,8.13
2019-04-28T12:28:33.803Z,4.47
2019-04-28T12:31:04.215Z,5.30
2019-04-28T12:33:39.531Z,4.77
2019-04-28T12:36:13.125Z,3.80
2019-04-28T12:38:43.492Z,4.57
2019-04-28T12:41:13.738Z,5.40
2019-04-28T12:43:44.500Z,3.97
2019-04-28T12:46:14.860Z,4.23
2019-04-28T12:48:45.148Z,5.17
2019-04-28T12:51:15.561Z,6.97
2019-04-28T12:53:45.945Z,4.60
2019-04-28T12:56:16.727Z,6.50
2019-04-28T12:58:47.722Z,5.20
2019-04-28T13:01:29.270Z,5.70
2019-04-28T13:04:31.006Z,5.97
2019-04-28T13:07:07.816Z,7.00
2019-04-28T13:09:38.170Z,5.67
2019-04-28T13:12:08.625Z,3.80
2019-04-28T13:14:39.371Z,6.37
2019-04-28T13:17:09.782Z,3.67
2019-04-28T13:19:40.136Z,3.57
2019-04-28T13:22:10.445Z,6.90
2019-04-28T13:24:40.736Z,5.87
2019-04-28T13:27:13.671Z,5.87
2019-04-28T13:29:43.922Z,6.60
2019-04-28T13:32:14.419Z,5.03
2019-04-28T13:34:45.162Z,4.80
2019-04-28T13:37:15.869Z,5.03
2019-04-28T13:39:54.840Z,5.33
2019-04-28T13:42:25.359Z,4.23
2019-04-28T13:45:06.441Z,6.73
2019-04-28T13:47:37.164Z,5.97
2019-04-28T13:50:24.415Z,6.70
2019-04-28T13:52:55.150Z,6.93
2019-04-28T13:55:50.215Z,6.87
2019-04-28T13:58:23.414Z,6.30
2019-04-28T14:01:07.563Z,5.97
2019-04-28T14:04:06.065Z,5.10
2019-04-28T14:06:40.263Z,6.70
2019-04-28T14:09:17.991Z,4.67
2019-04-28T14:11:48.578Z,5.90
2019-04-28T14:14:18.932Z,6.27
2019-04-28T14:16:49.307Z,6.63
2019-04-28T14:19:20.298Z,5.03
2019-04-28T14:21:50.813Z,4.90
2019-04-28T14:24:21.745Z,5.50
2019-04-28T14:26:52.158Z,6.43
2019-04-28T14:29:22.331Z,5.60
2019-04-28T14:31:52.794Z,6.97
2019-04-28T14:34:23.223Z,4.97
2019-04-28T14:36:53.911Z,3.80
2019-04-28T14:39:24.587Z,5.37
2019-04-28T14:41:55.366Z,5.03
2019-04-28T14:44:25.708Z,10.93
2019-04-28T14:46:56.416Z,5.07
2019-04-28T14:49:27.179Z,4.77
2019-04-28T14:51:57.571Z,7.33
2019-04-28T14:54:27.994Z,4.77
2019-04-28T14:56:58.516Z,4.77
2019-04-28T14:59:28.958Z,6.97
2019-04-28T15:02:22.260Z,4.77
2019-04-28T15:05:18.166Z,5.13
2019-04-28T15:08:16.772Z,10.20
2019-04-28T15:10:54.482Z,8.47
2019-04-28T15:13:29.551Z,5.77
2019-04-28T15:16:00.613Z,9.20
2019-04-28T15:18:31.693Z,6.60
2019-04-28T15:21:02.368Z,5.93
2019-04-28T15:23:32.694Z,6.73
2019-04-28T15:26:03.942Z,7.00
2019-04-28T15:28:34.559Z,6.67
2019-04-28T15:31:05.718Z,5.20
2019-04-28T15:33:36.418Z,5.83
2019-04-28T15:36:07.066Z,6.03
2019-04-28T15:38:38.297Z,6.67
2019-04-28T15:41:21.026Z,5.33
2019-04-28T15:43:41.261Z,6.87
2019-04-28T15:46:11.957Z,5.17
2019-04-28T15:48:42.655Z,7.27
2019-04-28T15:51:13.010Z,7.43
2019-04-28T15:53:45.332Z,5.67
2019-04-28T15:56:25.370Z,5.47
2019-04-28T15:58:56.847Z,6.67
2019-04-28T16:01:27.789Z,6.83
2019-04-28T16:03:58.263Z,6.87
2019-04-28T16:06:29.967Z,7.27
2019-04-28T16:09:00.376Z,7.73
2019-04-28T16:11:31.068Z,9.07
2019-04-28T16:14:02.115Z,6.97
2019-04-28T16:16:33.271Z,7.27
2019-04-28T16:19:03.598Z,7.80
2019-04-28T16:21:33.943Z,6.03
2019-04-28T16:24:05.245Z,6.40
2019-04-28T16:26:35.655Z,7.97
2019-04-28T16:29:06.806Z,7.43
2019-04-28T16:31:37.870Z,7.40
2019-04-28T16:34:08.607Z,5.90
2019-04-28T16:36:39.417Z,8.10
2019-04-28T16:39:11.978Z,4.97
2019-04-28T16:41:45.253Z,4.97
2019-04-28T16:44:24.226Z,6.60
2019-04-28T16:46:54.765Z,7.03
2019-04-28T16:49:25.524Z,8.03
2019-04-28T16:51:56.781Z,8.87
2019-04-28T16:54:27.191Z,8.57
2019-04-28T16:57:06.517Z,9.73
2019-04-28T17:00:05.016Z,8.77
2019-04-28T17:02:40.231Z,7.97
2019-04-28T17:05:11.214Z,10.43
2019-04-28T17:07:51.987Z,9.37
2019-04-28T17:10:14.797Z,9.10
2019-04-28T17:12:45.174Z,7.30
2019-04-28T17:15:15.848Z,8.43
2019-04-28T17:17:46.242Z,8.00
2019-04-28T17:20:18.669Z,10.80
2019-04-28T17:22:49.091Z,9.90
2019-04-28T17:25:19.487Z,9.67
2019-04-28T17:27:51.405Z,11.97
2019-04-28T17:30:22.080Z,8.17
2019-04-28T17:32:52.541Z,11.13
2019-04-28T17:35:23.177Z,13.57
2019-04-28T17:38:06.056Z,10.70
2019-04-28T17:40:27.342Z,11.97
2019-04-28T17:42:57.654Z,10.00
2019-04-28T17:45:28.393Z,11.73
2019-04-28T17:48:03.782Z,8.83
2019-04-28T17:50:35.683Z,10.60
2019-04-28T17:53:05.982Z,13.50
2019-04-28T17:55:36.679Z,13.77
2019-04-28T17:58:07.358Z,10.77
2019-04-28T18:00:47.196Z,10.10
2019-04-28T18:03:24.480Z,12.20
2019-04-28T18:06:00.198Z,9.30
2019-04-28T18:08:35.875Z,9.67
2019-04-28T18:11:07.155Z,11.03
2019-04-28T18:13:37.606Z,14.03
2019-04-28T18:16:21.214Z,11.33
2019-04-28T18:18:56.487Z,12.00
2019-04-28T18:21:27.219Z,12.17
2019-04-28T18:23:58.084Z,13.03
2019-04-28T18:26:29.049Z,11.00
2019-04-28T18:29:00.002Z,13.33
2019-04-28T18:31:58.909Z,13.83
2019-04-28T18:34:57.368Z,8.77
2019-04-28T18:37:47.042Z,9.80
2019-04-28T18:40:33.077Z,11.83
2019-04-28T18:43:15.238Z,13.90
2019-04-28T18:45:45.965Z,12.13
2019-04-28T18:48:16.446Z,9.07
2019-04-28T18:50:46.809Z,12.83
2019-04-28T18:53:17.343Z,13.60
2019-04-28T18:55:48.161Z,11.90
2019-04-28T18:58:22.026Z,13.47
2019-04-28T19:01:04.196Z,12.03
2019-04-28T19:03:36.435Z,14.90
2019-04-28T19:06:09.468Z,10.77
2019-04-28T19:08:50.839Z,11.70
2019-04-28T19:11:55.469Z,13.80
2019-04-28T19:14:34.644Z,8.37
2019-04-28T19:17:26.819Z,10.80
2019-04-28T19:19:57.167Z,10.13
2019-04-28T19:22:27.571Z,10.37
2019-04-28T19:24:57.902Z,10.80
2019-04-28T19:27:28.298Z,11.60
2019-04-28T19:29:58.976Z,9.83
2019-04-28T19:32:29.988Z,16.87
2019-04-28T19:35:00.877Z,14.30
2019-04-28T19:37:31.247Z,12.53
2019-04-28T19:40:02.331Z,10.80
2019-04-28T19:42:36.413Z,14.30
2019-04-28T19:45:11.980Z,10.93
2019-04-28T19:47:42.431Z,10.80
2019-04-28T19:50:13.723Z,9.20
2019-04-28T19:52:44.064Z,12.57
2019-04-28T19:55:19.325Z,12.47
2019-04-28T19:58:13.442Z,11.67
2019-04-28T20:00:56.623Z,12.37
2019-04-28T20:03:27.482Z,11.50
2019-04-28T20:05:58.228Z,10.03
2019-04-28T20:08:28.646Z,9.53
2019-04-28T20:10:59.495Z,12.23
2019-04-28T20:13:34.113Z,9.97
2019-04-28T20:16:04.464Z,18.63
2019-04-28T20:18:35.112Z,11.30
2019-04-28T20:21:05.527Z,13.10
2019-04-28T20:23:36.178Z,8.37
2019-04-28T20:26:06.897Z,14.40
2019-04-28T20:28:37.304Z,10.53
2019-04-28T20:31:07.884Z,10.37
2019-04-28T20:33:38.187Z,13.17
2019-04-28T20:36:36.901Z,19.33
2019-04-28T20:39:13.431Z,13.00
2019-04-28T20:41:43.868Z,11.13
2019-04-28T20:44:14.212Z,13.27
2019-04-28T20:46:44.646Z,13.10
2019-04-28T20:49:19.120Z,10.87
2019-04-28T20:51:49.526Z,13.17
2019-04-28T20:54:23.193Z,14.93
2019-04-28T20:56:53.487Z,12.47
2019-04-28T20:59:23.817Z,13.03
2019-04-28T21:01:54.381Z,19.93
2019-04-28T21:04:25.315Z,13.40
2019-04-28T21:06:56.090Z,11.60
2019-04-28T21:09:29.510Z,10.13
2019-04-28T21:11:59.952Z,14.30
2019-04-28T21:14:30.886Z,14.27
2019-04-28T21:17:01.408Z,13.00
2019-04-28T21:19:31.941Z,13.63
2019-04-28T21:22:02.797Z,11.30
2019-04-28T21:24:33.382Z,11.47
2019-04-28T21:27:03.914Z,16.70
2019-04-28T21:29:34.307Z,12.47
2019-04-28T21:32:05.073Z,13.53
2019-04-28T21:34:35.424Z,13.53
2019-04-28T21:37:06.121Z,11.30
2019-04-28T21:39:36.558Z,11.67
2019-04-28T21:42:10.222Z,10.87
2019-04-28T21:44:50.980Z,9.47
2019-04-28T21:47:24.792Z,9.47
2019-04-28T21:49:55.182Z,13.67
2019-04-28T21:52:25.830Z,9.00
2019-04-28T21:54:56.222Z,8.73
2019-04-28T21:57:26.862Z,10.83
2019-04-28T21:59:57.370Z,8.40
2019-04-28T22:02:28.188Z,8.17
2019-04-28T22:04:58.614Z,10.27
2019-04-28T22:07:28.951Z,6.93
2019-04-28T22:09:59.610Z,9.27
2019-04-28T22:12:30.011Z,13.07
2019-04-28T22:15:00.688Z,9.40
2019-04-28T22:17:31.314Z,15.50
2019-04-28T22:20:01.649Z,13.33
2019-04-28T22:22:33.526Z,9.10
2019-04-28T22:25:10.242Z,8.33
2019-04-28T22:27:42.730Z,11.60
2019-04-28T22:30:14.169Z,11.03
2019-04-28T22:32:44.577Z,12.80
2019-04-28T22:35:16.496Z,12.13
2019-04-28T22:37:47.135Z,9.60
2019-04-28T22:40:17.466Z,12.63
2019-04-28T22:42:47.971Z,11.77
2019-04-28T22:45:21.740Z,12.37
2019-04-28T22:47:52.566Z,11.13
2019-04-28T22:50:48.400Z,19.93
2019-04-28T22:53:21.024Z,13.30
2019-04-28T22:56:00.697Z,14.60
2019-04-28T22:58:47.434Z,9.97
2019-04-28T23:01:24.682Z,9.47
2019-04-28T23:04:07.390Z,19.27
2019-04-28T23:06:37.689Z,9.60
2019-04-28T23:09:13.644Z,11.33
2019-04-28T23:11:44.001Z,10.53
2019-04-28T23:14:14.580Z,9.70
2019-04-28T23:16:45.028Z,10.70
2019-04-28T23:19:17.037Z,11.43
2019-04-28T23:22:11.871Z,12.70
2019-04-28T23:24:42.185Z,19.23
2019-04-28T23:27:13.216Z,10.63
2019-04-28T23:29:43.907Z,10.67
2019-04-28T23:32:15.257Z,13.43
2019-04-28T23:34:45.590Z,12.17
2019-04-28T23:37:15.953Z,10.63
2019-04-28T23:39:46.290Z,9.83
2019-04-28T23:42:31.634Z,13.37
2019-04-28T23:45:01.891Z,10.43
2019-04-28T23:47:32.191Z,12.70
2019-04-28T23:50:03.132Z,10.60
2019-04-28T23:52:52.348Z,17.83
2019-04-28T23:55:24.714Z,10.93
2019-04-28T23:57:55.039Z,9.03
